Time;durP1;ratioP1;P1;durP2;ratioP2;P2;SDS_P1;SDS_P2;PMS_P1;PMS_P2;Temp;Humidity;BMP_temperature;BMP_pressure;BME280_temperature;BME280_humidity;BME280_pressure;Samples;Min_cycle;Max_cycle;Signal;HPM_P1;HPM_P2
2022/03/23 00:00:29;;;;;;;102.53;38.22;;;;;;;6.40;66.57;102962.69;5022104;28;20088;-75
2022/03/23 00:02:55;;;;;;;113.28;39.95;;;;;;;6.32;65.65;102961.19;5021769;28;20026;-75
2022/03/23 00:05:20;;;;;;;109.25;39.45;;;;;;;6.28;66.19;102966.91;5023646;28;20041;-75
2022/03/23 00:07:46;;;;;;;114.40;42.47;;;;;;;6.25;66.58;102958.94;5024232;28;20268;-75
2022/03/23 00:10:11;;;;;;;115.63;40.22;;;;;;;6.20;66.40;102965.44;5028819;28;20028;-75
2022/03/23 00:12:36;;;;;;;105.20;39.58;;;;;;;6.13;66.34;102961.50;5022480;28;20030;-75
2022/03/23 00:15:02;;;;;;;103.68;37.38;;;;;;;6.07;67.09;102964.50;5022006;28;20061;-75
2022/03/23 00:17:27;;;;;;;91.80;35.30;;;;;;;6.04;67.28;102968.53;5021842;28;20029;-75
2022/03/23 00:19:53;;;;;;;104.63;34.72;;;;;;;5.99;67.25;102962.13;5022613;28;20211;-75
2022/03/23 00:22:19;;;;;;;99.60;36.13;;;;;;;5.93;67.86;102959.94;5022244;28;20157;-75
2022/03/23 00:24:44;;;;;;;106.82;35.72;;;;;;;5.91;68.37;102964.09;5022082;28;20030;-75
2022/03/23 00:27:09;;;;;;;95.45;33.63;;;;;;;5.85;68.41;102953.25;5024699;28;20145;-75
2022/03/23 00:29:35;;;;;;;110.20;37.53;;;;;;;5.82;68.43;102963.38;5022514;28;20264;-75
2022/03/23 00:32:00;;;;;;;94.60;32.53;;;;;;;5.78;68.45;102969.09;5021900;28;20026;-75
2022/03/23 00:34:25;;;;;;;94.85;33.60;;;;;;;5.69;68.86;102965.03;5021583;28;20026;-75
2022/03/23 00:36:51;;;;;;;91.15;34.60;;;;;;;5.65;68.70;102968.16;5021828;28;20046;-75
2022/03/23 00:39:16;;;;;;;91.78;33.72;;;;;;;5.59;69.11;102967.69;5021749;28;20176;-75
2022/03/23 00:41:41;;;;;;;94.78;33.95;;;;;;;5.56;68.80;102967.41;5022911;28;20213;-75
2022/03/23 00:44:07;;;;;;;113.43;37.88;;;;;;;5.58;68.71;102969.34;5027181;28;20272;-75
2022/03/23 00:46:32;;;;;;;97.72;36.33;;;;;;;5.61;68.23;102966.09;5022007;28;20026;-75
2022/03/23 00:48:57;;;;;;;106.30;38.72;;;;;;;5.64;68.17;102966.34;5023648;28;20030;-75
2022/03/23 00:51:23;;;;;;;103.70;39.03;;;;;;;5.67;68.24;102961.41;5025241;28;20026;-75
2022/03/23 00:53:48;;;;;;;102.78;37.72;;;;;;;5.71;67.89;102968.63;5025342;28;20180;-75
2022/03/23 00:56:13;;;;;;;99.38;35.97;;;;;;;5.74;67.75;102962.78;5025315;28;20042;-75
2022/03/23 00:58:39;;;;;;;94.88;35.85;;;;;;;5.71;67.99;102966.03;5031777;28;20168;-75
2022/03/23 01:01:04;;;;;;;107.15;36.90;;;;;;;5.65;67.88;102962.97;5025843;28;20089;-75
2022/03/23 01:03:30;;;;;;;101.97;36.70;;;;;;;5.59;68.57;102959.94;5024966;28;20076;-75
2022/03/23 01:05:55;;;;;;;105.22;39.65;;;;;;;5.54;67.92;102958.66;5024954;28;20036;-75
2022/03/23 01:08:20;;;;;;;78.78;31.92;;;;;;;5.48;68.91;102959.06;5025028;28;20205;-75
2022/03/23 01:10:46;;;;;;;91.65;35.30;;;;;;;5.42;68.86;102956.00;5030592;28;20151;-75
2022/03/23 01:13:11;;;;;;;113.53;42.10;;;;;;;5.43;68.57;102956.91;5029956;28;20050;-75
2022/03/23 01:15:37;;;;;;;120.60;44.45;;;;;;;5.40;68.43;102955.91;5025304;28;20201;-75
2022/03/23 01:18:03;;;;;;;106.13;39.75;;;;;;;5.38;68.45;102952.25;5025106;28;20022;-75
2022/03/23 01:20:30;;;;;;;102.05;39.58;;;;;;;5.37;69.25;102955.66;5024971;28;20034;-75
2022/03/23 01:22:55;;;;;;;91.28;35.90;;;;;;;5.30;69.25;102952.44;5024869;28;20089;-75
2022/03/23 01:25:21;;;;;;;119.43;42.97;;;;;;;5.27;69.45;102950.53;5027476;28;20522;-75
2022/03/23 01:27:47;;;;;;;89.13;35.72;;;;;;;5.22;69.22;102946.69;5031849;28;20026;-75
2022/03/23 01:30:14;;;;;;;97.03;35.65;;;;;;;5.14;69.72;102947.75;5024958;28;20264;-75
2022/03/23 01:32:42;;;;;;;88.60;34.38;;;;;;;5.09;70.18;102946.50;5020874;28;20022;-75
2022/03/23 01:35:08;;;;;;;86.70;35.33;;;;;;;5.08;70.29;102942.09;5024105;28;20309;-75
2022/03/23 01:37:34;;;;;;;94.78;36.33;;;;;;;5.02;70.36;102938.22;5024832;28;20032;-75
2022/03/23 01:40:01;;;;;;;88.47;35.63;;;;;;;4.98;70.68;102935.28;5024733;28;20021;-75
2022/03/23 01:42:27;;;;;;;78.85;30.63;;;;;;;4.92;70.11;102940.84;5025444;28;20100;-75
2022/03/23 01:44:53;;;;;;;73.57;31.35;;;;;;;4.84;70.23;102929.03;5025168;28;20065;-75
2022/03/23 01:47:18;;;;;;;83.82;32.25;;;;;;;4.78;71.06;102933.66;5024491;28;20084;-75
2022/03/23 01:49:51;;;;;;;74.70;32.00;;;;;;;4.76;71.08;102930.06;5024243;28;20030;-75
2022/03/23 01:52:19;;;;;;;67.57;28.95;;;;;;;4.67;71.23;102936.28;5024194;28;20041;-75
2022/03/23 01:54:45;;;;;;;80.07;30.58;;;;;;;4.62;71.92;102942.78;5024506;28;20029;-75
2022/03/23 01:57:13;;;;;;;72.88;29.85;;;;;;;4.58;71.70;102937.25;5023714;28;20166;-75
2022/03/23 01:59:38;;;;;;;74.30;30.60;;;;;;;4.56;72.17;102941.34;5024146;28;20040;-75
2022/03/23 02:02:05;;;;;;;83.07;30.13;;;;;;;4.53;72.21;102937.75;5025828;28;20029;-75
2022/03/23 02:04:30;;;;;;;69.00;26.95;;;;;;;4.53;71.98;102926.50;5027503;28;20022;-75
2022/03/23 02:06:55;;;;;;;71.03;29.27;;;;;;;4.49;71.73;102924.44;5024338;28;20033;-75
2022/03/23 02:09:21;;;;;;;59.38;25.75;;;;;;;4.43;71.81;102929.13;5023988;28;20100;-75
2022/03/23 02:11:49;;;;;;;64.75;26.98;;;;;;;4.41;71.84;102929.00;5031730;28;20037;-75
2022/03/23 02:14:15;;;;;;;69.35;28.65;;;;;;;4.41;72.11;102930.69;5023931;28;20101;-75
2022/03/23 02:16:41;;;;;;;65.65;28.10;;;;;;;4.42;72.03;102929.88;5024105;28;20073;-75
2022/03/23 02:19:06;;;;;;;73.20;27.98;;;;;;;4.46;72.06;102926.78;5023768;28;20044;-75
2022/03/23 02:21:34;;;;;;;73.32;28.83;;;;;;;4.45;71.51;102928.47;5023298;28;20057;-75
2022/03/23 02:23:59;;;;;;;68.88;28.33;;;;;;;4.47;72.11;102936.34;5023487;28;20022;-75
2022/03/23 02:26:26;;;;;;;74.00;30.35;;;;;;;4.52;71.42;102932.47;5028338;28;20049;-75
2022/03/23 02:28:53;;;;;;;77.40;31.88;;;;;;;4.55;71.28;102929.22;5043803;28;20037;-75
2022/03/23 02:31:18;;;;;;;56.25;25.98;;;;;;;4.56;71.39;102933.63;5023615;28;20057;-75
2022/03/23 02:33:44;;;;;;;65.20;29.10;;;;;;;4.50;70.90;102931.44;5023188;28;20022;-75
2022/03/23 02:36:10;;;;;;;63.50;28.52;;;;;;;4.42;70.93;102927.31;5023443;28;20245;-75
2022/03/23 02:38:35;;;;;;;61.42;27.92;;;;;;;4.39;71.14;102924.47;5023549;28;20084;-75
2022/03/23 02:41:01;;;;;;;63.08;28.27;;;;;;;4.37;70.75;102931.19;5023486;28;20030;-75
2022/03/23 02:43:26;;;;;;;65.88;29.63;;;;;;;4.37;70.75;102923.47;5027278;28;20296;-75
2022/03/23 02:45:51;;;;;;;57.72;25.50;;;;;;;4.33;71.61;102930.97;5037322;28;20037;-75
2022/03/23 02:48:17;;;;;;;59.42;26.02;;;;;;;4.29;71.85;102928.91;5023144;28;20029;-75
2022/03/23 02:50:42;;;;;;;59.13;25.38;;;;;;;4.21;72.52;102923.88;5022926;28;20022;-75
2022/03/23 03:01:54;;;;;;;59.33;25.70;;;;;;;3.94;73.03;102929.44;5015122;28;20100;-78
2022/03/23 03:04:23;;;;;;;57.40;25.25;;;;;;;3.89;73.53;102928.13;5023050;28;20616;-78
2022/03/23 03:06:49;;;;;;;62.40;26.57;;;;;;;3.87;73.75;102934.84;5022930;28;20030;-77
2022/03/23 03:09:15;;;;;;;66.82;26.98;;;;;;;3.88;73.33;102931.50;5022811;28;20030;-78
2022/03/23 03:11:43;;;;;;;61.10;26.08;;;;;;;3.89;73.28;102932.41;5023581;28;20034;-78
2022/03/23 03:14:09;;;;;;;62.92;27.40;;;;;;;3.89;72.90;102928.13;5023405;28;20026;-78
2022/03/23 03:16:35;;;;;;;65.03;27.08;;;;;;;3.90;73.43;102932.53;5023023;28;20025;-77
2022/03/23 03:19:00;;;;;;;68.07;28.33;;;;;;;3.90;72.48;102935.09;5023656;28;20014;-78
2022/03/23 03:21:25;;;;;;;70.15;29.02;;;;;;;3.94;72.79;102936.25;5022784;28;20161;-78
2022/03/23 03:23:51;;;;;;;77.63;31.23;;;;;;;3.95;73.03;102938.06;5023525;28;20052;-77
2022/03/23 03:26:17;;;;;;;114.03;41.65;;;;;;;3.94;72.57;102941.41;5022871;28;20259;-75
2022/03/23 03:28:43;;;;;;;117.28;44.03;;;;;;;3.90;72.49;102936.78;5024141;28;20303;-75
2022/03/23 03:31:11;;;;;;;108.95;41.22;;;;;;;3.88;72.31;102940.91;5026886;28;20059;-75
2022/03/23 03:33:38;;;;;;;87.22;33.35;;;;;;;3.82;72.85;102942.19;5022757;28;20257;-75
2022/03/23 03:36:05;;;;;;;68.78;31.35;;;;;;;3.79;73.09;102938.44;5022723;28;20032;-75
2022/03/23 03:38:31;;;;;;;77.13;31.15;;;;;;;3.74;72.96;102938.06;5021308;28;20030;-75
2022/03/23 03:40:57;;;;;;;68.53;29.35;;;;;;;3.74;72.93;102944.91;5022154;28;20025;-75
2022/03/23 03:43:24;;;;;;;64.85;27.55;;;;;;;3.71;73.56;102948.13;5024181;28;20324;-75
2022/03/23 03:45:50;;;;;;;60.85;27.58;;;;;;;3.65;73.23;102943.34;5022797;28;20026;-75
2022/03/23 03:48:17;;;;;;;67.93;27.70;;;;;;;3.59;73.80;102942.81;5022925;28;20034;-75
2022/03/23 03:50:43;;;;;;;67.00;27.80;;;;;;;3.57;73.31;102939.19;5022422;28;20029;-75
2022/03/23 03:53:08;;;;;;;62.03;28.15;;;;;;;3.56;73.70;102947.69;5022715;28;20084;-75
2022/03/23 03:55:38;;;;;;;64.28;28.30;;;;;;;3.55;73.86;102939.81;5020794;28;20173;-75
2022/03/23 03:58:03;;;;;;;;;;;;;;;3.62;71.93;102945.66;5023043;28;20021;-77
2022/03/23 04:00:30;;;;;;;67.05;28.60;;;;;;;3.52;73.52;102939.56;5022233;28;20113;-78
2022/03/23 04:02:55;;;;;;;65.85;29.60;;;;;;;3.52;73.69;102939.56;5036144;28;20065;-78
2022/03/23 04:05:20;;;;;;;61.63;26.52;;;;;;;3.53;73.91;102943.94;5022340;28;20029;-78
2022/03/23 04:07:46;;;;;;;59.78;26.80;;;;;;;3.50;74.11;102930.81;5022356;28;20033;-77
2022/03/23 04:10:11;;;;;;;60.17;26.20;;;;;;;3.39;73.41;102935.94;5021695;28;20232;-78
2022/03/23 04:12:36;;;;;;;66.15;28.15;;;;;;;3.36;76.53;102939.91;5035004;28;20089;-77
2022/03/23 04:15:03;;;;;;;67.88;29.10;;;;;;;3.37;77.72;102944.31;5028585;28;20025;-77
2022/03/23 04:17:28;;;;;;;61.00;26.00;;;;;;;3.36;75.98;102942.47;5025720;28;20097;-77
2022/03/23 04:19:53;;;;;;;60.58;26.88;;;;;;;3.33;75.79;102950.84;5021731;28;20021;-77
2022/03/23 04:22:21;;;;;;;54.72;26.50;;;;;;;3.28;75.38;102947.88;5022610;28;20392;-77
2022/03/23 04:24:47;;;;;;;58.15;25.50;;;;;;;3.24;75.64;102943.22;5025429;28;20036;-77
2022/03/23 04:27:12;;;;;;;50.22;25.10;;;;;;;3.19;75.43;102948.78;5033242;28;20042;-75
2022/03/23 04:29:37;;;;;;;47.45;23.63;;;;;;;3.11;74.90;102937.78;5027089;28;20112;-75
2022/03/23 04:32:03;;;;;;;55.53;23.25;;;;;;;3.04;75.30;102946.66;5026069;28;20026;-75
2022/03/23 04:34:29;;;;;;;59.38;24.52;;;;;;;3.01;75.12;102943.78;5025588;28;20189;-75
2022/03/23 04:36:54;;;;;;;53.63;23.08;;;;;;;2.98;74.98;102947.78;5025747;28;20022;-75
2022/03/23 04:39:19;;;;;;;57.40;23.13;;;;;;;2.91;74.95;102952.38;5025253;28;20088;-75
2022/03/23 04:41:45;;;;;;;52.92;25.08;;;;;;;2.89;75.60;102953.91;5031489;28;20048;-75
2022/03/23 04:44:11;;;;;;;54.13;24.80;;;;;;;2.85;75.77;102954.38;5032599;28;20253;-75
2022/03/23 04:46:37;;;;;;;55.50;25.48;;;;;;;2.85;76.11;102954.38;5019143;28;20046;-75
2022/03/23 04:49:02;;;;;;;50.55;23.67;;;;;;;2.88;75.63;102954.69;5024885;28;20042;-75
2022/03/23 04:51:28;;;;;;;53.65;23.75;;;;;;;2.91;76.11;102962.69;5025273;28;20089;-75
2022/03/23 04:53:53;;;;;;;54.50;24.63;;;;;;;2.90;76.30;102957.41;5025555;28;20026;-75
2022/03/23 04:56:19;;;;;;;56.38;24.88;;;;;;;2.90;75.75;102959.97;5025502;28;20280;-75
2022/03/23 04:58:44;;;;;;;59.10;26.15;;;;;;;2.93;75.67;102961.13;5034805;28;20021;-75
2022/03/23 05:01:09;;;;;;;56.80;24.75;;;;;;;2.94;76.10;102962.94;5023536;28;20216;-75
2022/03/23 05:03:35;;;;;;;56.50;25.23;;;;;;;2.95;76.65;102961.28;5024004;28;20061;-75
2022/03/23 05:06:00;;;;;;;53.72;24.08;;;;;;;2.95;76.52;102963.84;5025268;28;20025;-75
2022/03/23 05:08:26;;;;;;;48.38;23.27;;;;;;;2.93;77.34;102963.72;5025174;28;20355;-75
2022/03/23 05:10:51;;;;;;;56.53;25.05;;;;;;;2.89;77.29;102976.19;5025081;28;20205;-75
2022/03/23 05:13:17;;;;;;;64.18;27.00;;;;;;;2.88;78.07;102976.94;5026426;28;20049;-75
2022/03/23 05:15:42;;;;;;;55.97;24.65;;;;;;;2.87;77.27;102986.34;5025337;28;20273;-75
2022/03/23 05:18:08;;;;;;;58.30;26.40;;;;;;;2.87;77.60;102981.19;5025422;28;20029;-75
2022/03/23 05:20:34;;;;;;;55.83;25.05;;;;;;;2.87;77.32;102981.19;5024965;28;20053;-75
2022/03/23 05:23:00;;;;;;;54.30;25.17;;;;;;;2.87;76.50;102980.28;5024750;28;20034;-75
2022/03/23 05:25:25;;;;;;;50.13;22.23;;;;;;;2.80;75.16;102981.41;5024732;28;20101;-75
2022/03/23 05:27:50;;;;;;;51.75;22.98;;;;;;;2.75;76.11;102990.38;5025704;28;20018;-75
2022/03/23 05:30:15;;;;;;;55.17;24.25;;;;;;;2.69;76.81;102974.38;5025198;28;20236;-75
2022/03/23 05:32:41;;;;;;;55.47;23.25;;;;;;;2.69;76.63;102987.25;5032510;28;20036;-75
2022/03/23 05:35:09;;;;;;;56.08;22.25;;;;;;;2.65;75.74;102985.16;5024672;28;20033;-75
2022/03/23 05:37:35;;;;;;;46.78;22.02;;;;;;;2.60;75.75;102990.81;5025099;28;20022;-75
2022/03/23 05:40:03;;;;;;;52.00;23.27;;;;;;;2.56;76.49;102988.75;5025294;28;20026;-75
2022/03/23 05:42:28;;;;;;;54.42;23.60;;;;;;;2.55;76.69;102980.84;5024965;28;20029;-75
2022/03/23 05:44:53;;;;;;;47.33;22.60;;;;;;;2.55;76.61;102988.56;5026376;28;20114;-75
2022/03/23 05:47:20;;;;;;;51.03;22.55;;;;;;;2.54;76.28;102997.97;5024453;28;20038;-75
2022/03/23 05:49:45;;;;;;;49.75;22.15;;;;;;;2.51;76.67;102995.13;5024552;28;20033;-75
2022/03/23 05:52:11;;;;;;;53.97;24.40;;;;;;;2.52;76.95;102991.78;5024204;28;20031;-74
2022/03/23 05:54:36;;;;;;;52.63;24.15;;;;;;;2.53;77.17;103001.31;5024754;28;20162;-75
2022/03/23 05:57:02;;;;;;;55.47;24.23;;;;;;;2.57;76.79;102995.69;5024104;28;20107;-75
2022/03/23 05:59:29;;;;;;;54.60;24.27;;;;;;;2.63;76.79;102999.59;5024455;28;20030;-75
2022/03/23 06:01:54;;;;;;;59.65;26.50;;;;;;;2.67;76.27;103004.25;5024263;28;20026;-75
2022/03/23 06:04:20;;;;;;;58.83;25.45;;;;;;;2.68;76.31;103003.47;5013243;28;20033;-75
2022/03/23 06:06:45;;;;;;;55.67;24.27;;;;;;;2.71;76.19;103004.66;5024530;28;20021;-75
2022/03/23 06:09:12;;;;;;;53.63;24.52;;;;;;;2.72;76.11;103005.56;5023791;28;20080;-74
2022/03/23 06:11:38;;;;;;;53.00;23.27;;;;;;;2.75;75.82;103008.41;5024906;28;20054;-74
2022/03/23 06:14:03;;;;;;;69.82;27.77;;;;;;;2.76;76.08;103005.97;5024622;28;20205;-74
2022/03/23 06:16:29;;;;;;;66.50;28.38;;;;;;;2.78;76.17;102999.28;5024490;28;20065;-74
2022/03/23 06:18:54;;;;;;;69.05;27.25;;;;;;;2.80;76.54;103004.59;5023801;28;20088;-75
2022/03/23 06:21:19;;;;;;;61.40;26.13;;;;;;;2.81;77.13;103006.41;5023894;28;20022;-75
2022/03/23 06:23:44;;;;;;;56.75;25.95;;;;;;;2.80;77.89;103012.31;5023668;28;20021;-75
2022/03/23 06:26:10;;;;;;;79.22;30.20;;;;;;;2.83;78.01;103010.00;5024221;28;20109;-75
2022/03/23 06:28:35;;;;;;;60.45;26.33;;;;;;;2.84;78.14;103016.97;5023797;28;20104;-75
2022/03/23 06:31:01;;;;;;;52.15;23.73;;;;;;;2.84;78.29;103011.81;5023559;28;20028;-75
2022/03/23 06:33:26;;;;;;;54.30;23.95;;;;;;;2.84;78.25;103016.97;5023016;28;20091;-75
2022/03/23 06:35:52;;;;;;;58.78;25.75;;;;;;;2.85;78.52;103011.03;5023621;28;20030;-75
2022/03/23 06:38:18;;;;;;;60.00;27.08;;;;;;;2.90;77.98;103017.50;5023483;28;20033;-75
2022/03/23 06:40:44;;;;;;;60.22;27.10;;;;;;;2.94;77.43;103019.59;5023436;28;20034;-74
2022/03/23 06:43:10;;;;;;;58.85;27.45;;;;;;;3.02;78.32;103024.53;5019298;28;20041;-74
2022/03/23 06:45:36;;;;;;;64.05;28.15;;;;;;;3.09;78.63;103029.47;5023105;28;20038;-74
2022/03/23 06:48:02;;;;;;;65.50;30.02;;;;;;;3.18;78.44;103027.69;5023022;28;20030;-74
2022/03/23 06:50:28;;;;;;;79.45;31.95;;;;;;;3.39;78.03;103030.34;5023474;28;20221;-74
2022/03/23 06:52:53;;;;;;;80.97;31.88;;;;;;;4.12;76.91;103022.03;5022735;28;20029;-75
2022/03/23 06:55:18;;;;;;;69.80;30.13;;;;;;;5.15;73.49;103021.91;5022868;28;20041;-75
2022/03/23 06:57:44;;;;;;;73.72;32.05;;;;;;;5.96;70.62;103023.97;5032688;28;20032;-75
2022/03/23 07:00:13;;;;;;;85.00;33.85;;;;;;;6.61;68.43;103019.44;5023988;28;20026;-75
2022/03/23 07:02:43;;;;;;;84.50;32.83;;;;;;;7.24;66.71;103034.47;5022482;28;20053;-75
2022/03/23 07:05:09;;;;;;;74.97;32.78;;;;;;;7.67;65.85;103015.88;5023043;28;20052;-75
2022/03/23 07:07:36;;;;;;;75.40;33.28;;;;;;;8.31;64.39;103021.13;5022906;28;20041;-75
2022/03/23 07:10:02;;;;;;;77.38;33.75;;;;;;;8.93;61.49;103023.53;5022664;28;20033;-75
2022/03/23 07:12:28;;;;;;;80.55;33.58;;;;;;;9.49;60.96;103020.19;5030757;28;20036;-75
2022/03/23 07:14:53;;;;;;;75.72;33.50;;;;;;;10.39;58.61;103028.28;5024754;28;20157;-75
2022/03/23 07:17:18;;;;;;;79.43;35.42;;;;;;;11.03;56.24;103022.41;5022728;28;20037;-75
2022/03/23 07:19:43;;;;;;;80.45;35.45;;;;;;;11.22;54.69;103027.84;5022911;28;20029;-75
2022/03/23 07:22:09;;;;;;;86.22;36.72;;;;;;;11.53;54.01;103026.97;5021990;28;20040;-75
2022/03/23 07:24:34;;;;;;;92.20;39.53;;;;;;;11.87;52.14;103020.94;5020352;28;20036;-75
2022/03/23 07:27:00;;;;;;;106.65;40.78;;;;;;;12.45;51.73;103028.34;5017128;28;20050;-75
2022/03/23 07:29:25;;;;;;;105.93;42.30;;;;;;;13.21;50.20;103026.84;5016725;28;20056;-75
2022/03/23 07:31:51;;;;;;;98.18;43.70;;;;;;;14.38;46.57;103029.56;5024226;28;20026;-75
2022/03/23 07:34:19;;;;;;;104.63;43.80;;;;;;;15.23;44.54;103026.91;5020901;28;20025;-75
2022/03/23 07:36:46;;;;;;;118.85;46.08;;;;;;;15.91;42.53;103029.50;5021967;28;20028;-75
2022/03/23 07:39:15;;;;;;;127.25;50.10;;;;;;;15.59;42.79;103030.06;5020172;28;20339;-75
2022/03/23 07:41:40;;;;;;;127.40;50.40;;;;;;;15.46;42.81;103033.94;5022458;28;20052;-75
2022/03/23 07:44:06;;;;;;;124.57;50.22;;;;;;;15.52;41.77;103029.78;5021152;28;20025;-75
2022/03/23 07:46:31;;;;;;;131.23;52.28;;;;;;;15.11;42.93;103036.09;5022453;28;20311;-75
2022/03/23 07:48:56;;;;;;;141.95;52.75;;;;;;;14.16;44.41;103037.28;5022285;28;20030;-75
2022/03/23 07:51:22;;;;;;;148.75;54.50;;;;;;;13.19;46.32;103039.84;5021279;28;20036;-75
2022/03/23 07:53:47;;;;;;;141.07;55.75;;;;;;;12.40;48.15;103041.97;5022227;28;20037;-75
2022/03/23 07:56:12;;;;;;;141.23;54.90;;;;;;;11.76;49.60;103050.78;5021371;28;20029;-75
2022/03/23 07:58:37;;;;;;;144.50;54.33;;;;;;;11.16;51.22;103053.59;5020880;28;20057;-75
2022/03/23 08:01:03;;;;;;;144.75;55.92;;;;;;;10.75;52.37;103057.34;5022176;28;20223;-75
2022/03/23 08:03:28;;;;;;;149.55;55.58;;;;;;;10.46;54.42;103053.91;5027812;28;20284;-75
2022/03/23 08:05:54;;;;;;;144.85;53.80;;;;;;;10.27;55.28;103055.38;5022183;28;20033;-75
2022/03/23 08:08:20;;;;;;;148.88;55.50;;;;;;;10.10;56.10;103061.25;5022410;28;20045;-75
2022/03/23 08:10:45;;;;;;;153.48;55.17;;;;;;;10.01;56.65;103059.00;5022330;28;20041;-75
2022/03/23 08:13:12;;;;;;;145.85;55.33;;;;;;;9.94;56.54;103063.75;5022602;28;20260;-75
2022/03/23 08:15:39;;;;;;;148.07;55.65;;;;;;;9.87;58.21;103057.25;5022223;28;20268;-75
2022/03/23 08:18:05;;;;;;;155.57;57.28;;;;;;;9.83;57.35;103053.53;5022072;28;20108;-75
2022/03/23 08:20:33;;;;;;;151.25;55.80;;;;;;;9.82;57.17;103051.75;5022038;28;20033;-75
2022/03/23 08:23:03;;;;;;;162.65;58.63;;;;;;;9.83;57.85;103048.31;5019512;28;20220;-75
2022/03/23 08:25:29;;;;;;;167.98;60.55;;;;;;;9.86;57.63;103053.75;5021844;28;20042;-75
2022/03/23 08:27:56;;;;;;;155.77;58.47;;;;;;;9.87;57.53;103060.72;5022319;28;20026;-75
2022/03/23 08:30:21;;;;;;;160.38;58.28;;;;;;;9.90;57.74;103057.44;5020744;28;20036;-75
2022/03/23 08:32:46;;;;;;;159.20;59.53;;;;;;;9.96;58.33;103056.91;5021893;28;20041;-75
2022/03/23 08:35:12;;;;;;;156.32;58.03;;;;;;;10.01;57.60;103050.28;5020970;28;20034;-75
2022/03/23 08:37:38;;;;;;;150.43;58.30;;;;;;;10.06;57.81;103057.56;5022400;28;20034;-75
2022/03/23 08:40:04;;;;;;;146.30;55.10;;;;;;;10.11;56.69;103057.88;5022281;28;20045;-75
2022/03/23 08:42:30;;;;;;;144.68;56.20;;;;;;;10.16;56.73;103059.03;5022284;28;20029;-75
2022/03/23 08:44:55;;;;;;;146.60;56.75;;;;;;;10.20;57.30;103053.19;5021614;28;20089;-75
2022/03/23 08:47:21;;;;;;;144.65;54.90;;;;;;;10.27;57.50;103057.97;5022263;28;20026;-75
2022/03/23 08:49:47;;;;;;;146.05;54.75;;;;;;;10.36;56.64;103059.38;5022240;28;20272;-75
2022/03/23 08:52:12;;;;;;;142.88;54.13;;;;;;;10.41;56.98;103055.34;5022187;28;20184;-75
2022/03/23 08:54:37;;;;;;;134.60;52.75;;;;;;;10.52;55.73;103061.19;5022069;28;20018;-76
2022/03/23 08:57:04;;;;;;;142.60;53.42;;;;;;;10.63;56.07;103061.81;5022168;28;20274;-76
2022/03/23 08:59:30;;;;;;;142.82;55.33;;;;;;;10.75;57.37;103057.34;5021864;28;20257;-76
2022/03/23 09:01:55;;;;;;;136.93;53.97;;;;;;;10.86;57.05;103060.56;5022043;28;20022;-76
2022/03/23 09:04:21;;;;;;;147.45;53.47;;;;;;;10.98;57.26;103060.38;5013306;28;20033;-76
2022/03/23 09:06:46;;;;;;;147.45;54.22;;;;;;;11.09;55.34;103064.50;5019117;28;20018;-76
2022/03/23 09:09:11;;;;;;;136.00;52.97;;;;;;;11.18;54.93;103061.50;5022385;28;20085;-76
2022/03/23 09:11:37;;;;;;;145.77;55.00;;;;;;;11.29;56.11;103057.81;5025045;28;20129;-76
2022/03/23 09:14:02;;;;;;;146.05;54.33;;;;;;;11.42;56.03;103051.56;5025554;28;20291;-76
2022/03/23 09:16:27;;;;;;;143.93;54.33;;;;;;;11.53;54.05;103058.28;5025457;28;20085;-76
2022/03/23 09:18:53;;;;;;;145.60;55.55;;;;;;;11.61;54.11;103054.38;5025309;28;20021;-76
2022/03/23 09:21:21;;;;;;;136.43;53.78;;;;;;;11.72;53.62;103052.34;5024963;28;20144;-76
2022/03/23 09:23:48;;;;;;;136.63;53.85;;;;;;;11.87;54.32;103057.50;5025258;28;20034;-76
2022/03/23 09:26:14;;;;;;;150.23;54.70;;;;;;;12.03;54.31;103055.75;5022648;28;20034;-78
2022/03/23 09:28:39;;;;;;;141.75;54.47;;;;;;;12.14;53.23;103052.88;5023804;28;20205;-78
2022/03/23 09:31:04;;;;;;;153.65;55.25;;;;;;;12.25;52.76;103053.47;5024877;28;20061;-78
2022/03/23 09:33:30;;;;;;;143.93;54.65;;;;;;;12.39;52.66;103059.41;5025434;28;20064;-78
2022/03/23 09:35:56;;;;;;;137.45;54.20;;;;;;;12.54;51.76;103059.28;5025292;28;20036;-78
2022/03/23 09:38:22;;;;;;;142.07;52.60;;;;;;;12.62;49.49;103047.50;5023893;28;20180;-78
2022/03/23 09:40:50;;;;;;;126.97;48.90;;;;;;;12.75;48.18;103050.75;5025105;28;20158;-78
2022/03/23 09:43:17;;;;;;;126.75;49.20;;;;;;;12.84;48.39;103049.47;5025042;28;20030;-78
2022/03/23 09:48:12;;;;;;;140.20;49.88;;;;;;;13.10;47.42;103052.47;5024982;28;20033;-78
2022/03/23 09:50:40;;;;;;;127.70;49.30;;;;;;;13.23;47.58;103059.22;5024833;28;20269;-78
2022/03/23 09:53:07;;;;;;;134.80;51.50;;;;;;;13.31;46.11;103055.25;5024431;28;20048;-78
2022/03/23 09:55:32;;;;;;;137.13;50.30;;;;;;;13.47;50.08;103056.00;5024376;28;20333;-78
2022/03/23 09:57:59;;;;;;;132.20;49.80;;;;;;;13.58;45.32;103054.78;5024509;28;20037;-78
2022/03/23 10:00:29;;;;;;;125.82;48.53;;;;;;;13.67;44.61;103057.84;5024623;28;20068;-78
2022/03/23 10:02:57;;;;;;;128.90;47.45;;;;;;;13.77;45.79;103053.03;5024970;28;20038;-78
2022/03/23 10:05:42;;;;;;;131.90;47.75;;;;;;;13.87;45.37;103050.00;5024402;28;20289;-78
2022/03/23 10:08:26;;;;;;;132.43;46.67;;;;;;;13.98;43.82;103046.13;5024112;28;20099;-78
2022/03/23 10:11:29;;;;;;;127.78;47.97;;;;;;;14.15;45.15;103051.22;5025115;28;20038;-78
2022/03/23 10:14:32;;;;;;;126.15;46.85;;;;;;;14.30;45.55;103056.28;5023741;28;20239;-79
2022/03/23 10:17:31;;;;;;;132.23;45.30;;;;;;;14.44;44.06;103055.16;5021623;28;20089;-79
2022/03/23 10:19:56;;;;;;;119.57;43.35;;;;;;;14.56;41.45;103054.78;5023486;28;20064;-79
2022/03/23 10:22:27;;;;;;;119.25;44.20;;;;;;;14.65;41.25;103057.81;5022788;28;20021;-79
2022/03/23 10:24:53;;;;;;;125.78;44.88;;;;;;;14.75;40.36;103065.22;5024219;28;20265;-79
2022/03/23 10:27:20;;;;;;;119.57;45.67;;;;;;;14.83;42.20;103055.09;5023869;28;20088;-79
2022/03/23 10:29:48;;;;;;;122.60;44.67;;;;;;;14.92;40.17;103058.06;5023474;28;20021;-72
2022/03/23 10:32:14;;;;;;;122.13;44.85;;;;;;;15.02;40.83;103053.19;5023352;28;20279;-72
2022/03/23 10:34:45;;;;;;;123.22;44.33;;;;;;;15.08;41.46;103046.47;5023754;28;20097;-72
2022/03/23 10:37:13;;;;;;;113.88;43.25;;;;;;;15.19;40.09;103049.50;5023060;28;20021;-72
2022/03/23 10:39:38;;;;;;;117.28;44.15;;;;;;;15.27;39.87;103036.69;5023597;28;20036;-72
2022/03/23 10:42:16;;;;;;;123.97;45.97;;;;;;;15.35;42.31;103043.16;5023773;28;20053;-72
2022/03/23 10:44:42;;;;;;;114.88;44.63;;;;;;;15.48;41.77;103045.44;5024092;28;20063;-72
2022/03/23 10:47:21;;;;;;;123.28;44.90;;;;;;;15.52;40.04;103041.16;5024312;28;20022;-72
2022/03/23 10:49:47;;;;;;;115.88;46.28;;;;;;;15.62;40.15;103039.78;5024025;28;20101;-72
2022/03/23 10:52:15;;;;;;;121.55;44.60;;;;;;;15.71;38.17;103034.88;5023766;28;20036;-72
2022/03/23 10:54:53;;;;;;;116.13;43.03;;;;;;;15.78;39.09;103036.00;5023977;28;20053;-72
2022/03/23 10:57:20;;;;;;;112.18;43.60;;;;;;;15.94;41.05;103035.75;5022405;28;20044;-72
2022/03/23 10:59:45;;;;;;;121.97;44.45;;;;;;;16.04;39.57;103029.09;5023878;28;20021;-72
2022/03/23 11:02:11;;;;;;;111.32;44.25;;;;;;;16.12;37.70;103032.91;5023503;28;20046;-72
2022/03/23 11:04:46;;;;;;;110.63;44.13;;;;;;;16.18;38.33;103026.97;5023662;28;20025;-72
2022/03/23 11:07:29;;;;;;;117.70;44.45;;;;;;;16.28;39.15;103023.84;5023284;28;20033;-72
2022/03/23 11:18:11;;;;;;;86.10;35.65;;;;;;;16.58;33.22;103024.81;5022379;28;20207;-72
2022/03/23 11:20:48;;;;;;;88.20;36.90;;;;;;;16.64;35.02;103027.66;5023157;28;20048;-72
2022/03/23 11:23:27;;;;;;;92.78;38.05;;;;;;;16.68;33.51;103024.28;5023300;28;20022;-72
2022/03/23 11:25:57;;;;;;;82.90;35.10;;;;;;;16.69;31.32;103016.44;5023333;28;20347;-72
2022/03/23 11:28:23;;;;;;;75.25;32.22;;;;;;;16.70;30.06;103017.34;5023352;28;20037;-72